ADDS METAR Data INFO
IDs: Format: Raw Decoded Include TAF

Data at: 1738 UTC 15 Dec 2017

KOXR 151651Z 02009KT 9SM FU CLR 19/M06 A3014 RMK AO2 SLP205 T01941061
KOXR 151551Z 02008KT 7SM FU CLR 17/M07 A3012 RMK AO2 SLP200 T01721072
KOXR 151451Z 02007KT 10SM FU CLR 14/M06 A3012 RMK AO2 SLP197 T01391061 53005
KOXR 151351Z AUTO 02005KT 10SM FU CLR 14/M07 A3011 RMK AO2 SLP195 T01441067 $
KOXR 151251Z AUTO 00000KT 10SM FU CLR 18/M08 A3010 RMK AO2 SLP192 T01781078 $
KOXR 151151Z AUTO VRB04KT 10SM FU CLR 12/00 A3010 RMK AO2 SLP192 T01220000 10200 20122 53000 $
KOXR 151051Z AUTO 36009KT 10SM FU CLR 15/M05 A3010 RMK AO2 SLP190 T01501050 $
KOXR 150951Z AUTO 05004KT 10SM FU CLR 13/M05 A3010 RMK AO2 SLP193 T01331050 $
KOXR 150851Z AUTO 00000KT 10SM FU CLR 17/M07 A3010 RMK AO2 SLP192 T01671067 51003 $
KOXR 150751Z AUTO 17005KT 10SM FU CLR 19/M07 A3010 RMK AO2 SLP191 T01891072 402890078 $
KOXR 150651Z AUTO 06006KT 10SM FU BKN043 20/M06 A3010 RMK AO2 SLP192 T02001061 $
KOXR 150551Z AUTO VRB03KT 10SM FU CLR 14/10 A3009 RMK AO2 SLP189 T01440100 10211 20122 53012 $
KOXR 150451Z AUTO 28005KT 10SM FU CLR 16/02 A3008 RMK AO2 SLP184 T01610022 $
KOXR 150351Z 04008G16KT 10SM FU CLR 20/M01 A3007 RMK AO2 SLP180 T02001011 $
KOXR 150251Z 01005KT 10SM FU CLR 16/03 A3006 RMK AO2 SLP178 T01610033 51017 $
KOXR 150151Z 33004KT 7SM FU SCT037 16/03 A3004 RMK AO2 SLP174 T01560033 $
KOXR 150051Z 34004KT 6SM HZ FU CLR 17/05 A3002 RMK AO2 SLP166 T01720050 $
KOXR 142351Z 31007KT 6SM HZ FU CLR 18/08 A3001 RMK AO2 SLP161 T01830078 10289 20167 53005 $
KOXR 142251Z 27011KT 6SM HZ FU CLR 20/11 A3000 RMK AO2 SLP158 T02000111 $
KOXR 142151Z 28010KT 5SM HZ FU CLR 21/09 A2999 RMK AO2 SLP155 T02110094 $
KOXR 142051Z 27007KT 5SM HZ FU CLR 21/10 A2999 RMK AO2 SLP155 T02110100 58018 $
KOXR 141951Z 05016G22KT 10SM FU CLR 28/M09 A3001 RMK AO2 PK WND 07026/1855 SLP161 T02831094
KOXR 141851Z 07014G19KT 9SM FU CLR 27/M10 A3003 RMK AO2 SLP168 T02721100
KOXR 141751Z 31006KT 3SM HZ FU CLR 17/07 A3004 RMK AO2 SLP174 T01720067 10172 20078 52020
KOXR 141651Z 27007KT 4SM HZ FU FEW048 15/03 A3003 RMK AO2 SLP167 T01500033
KOXR 141551Z 00000KT 10SM FU BKN050 11/M07 A3000 RMK AO2 SLP160 T01061072
KOXR 141451Z 08004KT 10SM FU CLR 10/M09 A2998 RMK AO2 SLP153 T01001094 53012
KOXR 141351Z AUTO 05004KT 10SM FU CLR 09/M08 A2997 RMK AO2 SLP149 T00891083
KOXR 141251Z AUTO 07004KT 10SM FU CLR 08/M07 A2996 RMK AO2 SLP144 T00831072
KOXR 141151Z AUTO 07003KT 10SM FU CLR 09/M08 A2995 RMK AO2 SLP142 T00941078 10117 20089 50004
KOXR 141051Z AUTO 05003KT 10SM FU CLR 09/M06 A2995 RMK AO2 SLP142 T00891061
KOXR 140951Z AUTO 00000KT 10SM FU CLR 11/M07 A2995 RMK AO2 SLP141 T01061072
KOXR 140851Z AUTO 08005KT 10SM FU CLR 11/M05 A2994 RMK AO2 SLP137 T01061050 56005
KOXR 140751Z AUTO 08004KT 5SM HZ FU CLR 10/02 A2994 RMK AO2 SLP138 T01000017 402670089
KOXR 140651Z AUTO 07003KT 5SM HZ FU CLR 11/04 A2995 RMK AO2 SLP140 T01110039
KOXR 140551Z AUTO 00000KT 4SM HZ FU CLR 11/07 A2996 RMK AO2 SLP142 T01060072 10194 20100 53004